sensor_id;sensor_type;location;lat;lon;timestamp;P1;durP1;ratioP1;P2;durP2;ratioP2
40573;SDS011;26283;49.020;8.644;2022-08-24T00:02:23;2.47;;;2.28;;
40573;SDS011;26283;49.020;8.644;2022-08-24T00:04:50;3.58;;;2.70;;
40573;SDS011;26283;49.020;8.644;2022-08-24T00:07:16;3.50;;;2.15;;
40573;SDS011;26283;49.020;8.644;2022-08-24T00:09:45;3.10;;;2.37;;
40573;SDS011;26283;49.020;8.644;2022-08-24T00:12:11;4.90;;;2.40;;
40573;SDS011;26283;49.020;8.644;2022-08-24T00:14:38;4.57;;;2.50;;
40573;SDS011;26283;49.020;8.644;2022-08-24T00:17:04;2.87;;;2.55;;
40573;SDS011;26283;49.020;8.644;2022-08-24T00:19:29;3.40;;;2.62;;
40573;SDS011;26283;49.020;8.644;2022-08-24T00:21:55;2.95;;;2.20;;
40573;SDS011;26283;49.020;8.644;2022-08-24T00:24:20;3.28;;;2.28;;
40573;SDS011;26283;49.020;8.644;2022-08-24T00:26:46;3.05;;;2.70;;
40573;SDS011;26283;49.020;8.644;2022-08-24T00:29:13;4.45;;;2.37;;
40573;SDS011;26283;49.020;8.644;2022-08-24T00:31:39;2.90;;;2.70;;
40573;SDS011;26283;49.020;8.644;2022-08-24T00:34:05;2.90;;;2.70;;
40573;SDS011;26283;49.020;8.644;2022-08-24T00:36:31;2.62;;;2.42;;
40573;SDS011;26283;49.020;8.644;2022-08-24T00:38:57;2.55;;;2.37;;
40573;SDS011;26283;49.020;8.644;2022-08-24T00:41:23;2.70;;;2.47;;
40573;SDS011;26283;49.020;8.644;2022-08-24T00:43:58;3.20;;;2.90;;
40573;SDS011;26283;49.020;8.644;2022-08-24T00:48:56;5.70;;;2.75;;
40573;SDS011;26283;49.020;8.644;2022-08-24T00:51:31;2.95;;;2.60;;
40573;SDS011;26283;49.020;8.644;2022-08-24T00:54:11;3.95;;;2.80;;
40573;SDS011;26283;49.020;8.644;2022-08-24T00:56:47;3.17;;;2.53;;
40573;SDS011;26283;49.020;8.644;2022-08-24T00:59:23;2.92;;;2.60;;
40573;SDS011;26283;49.020;8.644;2022-08-24T01:02:14;4.40;;;2.67;;
40573;SDS011;26283;49.020;8.644;2022-08-24T01:04:59;3.33;;;2.50;;
40573;SDS011;26283;49.020;8.644;2022-08-24T01:07:35;3.25;;;2.65;;
40573;SDS011;26283;49.020;8.644;2022-08-24T01:10:05;4.22;;;2.70;;
40573;SDS011;26283;49.020;8.644;2022-08-24T01:13:00;2.53;;;2.30;;
40573;SDS011;26283;49.020;8.644;2022-08-24T01:15:26;2.40;;;2.30;;
40573;SDS011;26283;49.020;8.644;2022-08-24T01:17:58;5.83;;;2.67;;
40573;SDS011;26283;49.020;8.644;2022-08-24T01:20:52;3.70;;;2.37;;
40573;SDS011;26283;49.020;8.644;2022-08-24T01:23:32;4.13;;;2.80;;
40573;SDS011;26283;49.020;8.644;2022-08-24T01:29:05;3.00;;;2.80;;
40573;SDS011;26283;49.020;8.644;2022-08-24T01:31:33;3.17;;;2.57;;
40573;SDS011;26283;49.020;8.644;2022-08-24T01:33:58;3.87;;;2.72;;
40573;SDS011;26283;49.020;8.644;2022-08-24T01:36:35;3.37;;;2.50;;
40573;SDS011;26283;49.020;8.644;2022-08-24T01:39:13;3.10;;;2.90;;
40573;SDS011;26283;49.020;8.644;2022-08-24T01:41:45;3.27;;;2.60;;
40573;SDS011;26283;49.020;8.644;2022-08-24T01:44:11;3.08;;;2.78;;
40573;SDS011;26283;49.020;8.644;2022-08-24T01:46:41;2.83;;;2.60;;
40573;SDS011;26283;49.020;8.644;2022-08-24T01:49:08;2.50;;;2.17;;
40573;SDS011;26283;49.020;8.644;2022-08-24T01:51:34;2.83;;;2.50;;
40573;SDS011;26283;49.020;8.644;2022-08-24T01:54:00;6.53;;;3.10;;
40573;SDS011;26283;49.020;8.644;2022-08-24T01:56:27;3.43;;;3.10;;
40573;SDS011;26283;49.020;8.644;2022-08-24T01:58:53;3.57;;;2.80;;
40573;SDS011;26283;49.020;8.644;2022-08-24T02:01:19;2.77;;;2.40;;
40573;SDS011;26283;49.020;8.644;2022-08-24T02:03:44;3.03;;;2.63;;
40573;SDS011;26283;49.020;8.644;2022-08-24T02:06:10;3.53;;;2.80;;
40573;SDS011;26283;49.020;8.644;2022-08-24T02:08:35;3.23;;;2.93;;
40573;SDS011;26283;49.020;8.644;2022-08-24T02:11:02;3.63;;;3.10;;
40573;SDS011;26283;49.020;8.644;2022-08-24T02:13:31;2.90;;;2.70;;
40573;SDS011;26283;49.020;8.644;2022-08-24T02:15:56;3.10;;;2.63;;
40573;SDS011;26283;49.020;8.644;2022-08-24T02:18:23;3.17;;;2.93;;
40573;SDS011;26283;49.020;8.644;2022-08-24T02:20:48;3.40;;;3.10;;
40573;SDS011;26283;49.020;8.644;2022-08-24T02:23:14;3.43;;;3.00;;
40573;SDS011;26283;49.020;8.644;2022-08-24T02:25:39;3.27;;;2.97;;
40573;SDS011;26283;49.020;8.644;2022-08-24T02:28:05;3.10;;;2.80;;
40573;SDS011;26283;49.020;8.644;2022-08-24T02:30:30;3.60;;;2.73;;
40573;SDS011;26283;49.020;8.644;2022-08-24T02:32:56;3.00;;;2.80;;
40573;SDS011;26283;49.020;8.644;2022-08-24T02:35:23;3.63;;;2.73;;
40573;SDS011;26283;49.020;8.644;2022-08-24T02:37:48;4.17;;;2.80;;
40573;SDS011;26283;49.020;8.644;2022-08-24T02:40:14;3.20;;;2.90;;
40573;SDS011;26283;49.020;8.644;2022-08-24T02:42:39;4.17;;;3.20;;
40573;SDS011;26283;49.020;8.644;2022-08-24T02:45:06;3.13;;;2.90;;
40573;SDS011;26283;49.020;8.644;2022-08-24T02:47:33;3.23;;;2.90;;
40573;SDS011;26283;49.020;8.644;2022-08-24T02:49:59;3.50;;;2.80;;
40573;SDS011;26283;49.020;8.644;2022-08-24T02:52:25;3.33;;;2.93;;
40573;SDS011;26283;49.020;8.644;2022-08-24T02:54:51;2.83;;;2.63;;
40573;SDS011;26283;49.020;8.644;2022-08-24T02:57:16;3.53;;;2.70;;
40573;SDS011;26283;49.020;8.644;2022-08-24T02:59:41;4.60;;;2.90;;
40573;SDS011;26283;49.020;8.644;2022-08-24T03:02:07;3.10;;;2.90;;
40573;SDS011;26283;49.020;8.644;2022-08-24T03:04:32;3.23;;;2.70;;
40573;SDS011;26283;49.020;8.644;2022-08-24T03:06:58;3.07;;;2.77;;
40573;SDS011;26283;49.020;8.644;2022-08-24T03:09:24;3.23;;;3.03;;
40573;SDS011;26283;49.020;8.644;2022-08-24T03:11:49;3.10;;;2.90;;
40573;SDS011;26283;49.020;8.644;2022-08-24T03:14:15;4.30;;;3.50;;
40573;SDS011;26283;49.020;8.644;2022-08-24T03:16:41;3.37;;;3.07;;
40573;SDS011;26283;49.020;8.644;2022-08-24T03:19:06;4.40;;;3.10;;
40573;SDS011;26283;49.020;8.644;2022-08-24T03:21:32;3.63;;;3.37;;
40573;SDS011;26283;49.020;8.644;2022-08-24T03:23:57;3.20;;;2.90;;
40573;SDS011;26283;49.020;8.644;2022-08-24T03:26:23;3.20;;;2.77;;
40573;SDS011;26283;49.020;8.644;2022-08-24T03:28:48;2.90;;;2.70;;
40573;SDS011;26283;49.020;8.644;2022-08-24T03:31:14;3.43;;;3.00;;
40573;SDS011;26283;49.020;8.644;2022-08-24T03:33:39;2.93;;;2.70;;
40573;SDS011;26283;49.020;8.644;2022-08-24T03:36:05;4.43;;;3.00;;
40573;SDS011;26283;49.020;8.644;2022-08-24T03:38:31;3.30;;;3.00;;
40573;SDS011;26283;49.020;8.644;2022-08-24T03:40:56;3.40;;;3.07;;
40573;SDS011;26283;49.020;8.644;2022-08-24T03:43:22;3.20;;;2.90;;
40573;SDS011;26283;49.020;8.644;2022-08-24T03:46:06;3.30;;;2.90;;
40573;SDS011;26283;49.020;8.644;2022-08-24T03:48:32;3.40;;;3.10;;
40573;SDS011;26283;49.020;8.644;2022-08-24T03:50:59;2.93;;;2.67;;
40573;SDS011;26283;49.020;8.644;2022-08-24T03:53:25;4.73;;;2.97;;
40573;SDS011;26283;49.020;8.644;2022-08-24T03:55:50;3.10;;;2.90;;
40573;SDS011;26283;49.020;8.644;2022-08-24T03:58:16;3.40;;;3.20;;
40573;SDS011;26283;49.020;8.644;2022-08-24T04:00:42;3.30;;;3.10;;
40573;SDS011;26283;49.020;8.644;2022-08-24T04:03:08;3.30;;;3.00;;
40573;SDS011;26283;49.020;8.644;2022-08-24T04:05:35;3.57;;;2.97;;
40573;SDS011;26283;49.020;8.644;2022-08-24T04:08:00;4.17;;;3.07;;
40573;SDS011;26283;49.020;8.644;2022-08-24T04:10:26;3.23;;;2.93;;
40573;SDS011;26283;49.020;8.644;2022-08-24T04:12:52;3.97;;;3.33;;
40573;SDS011;26283;49.020;8.644;2022-08-24T04:15:18;3.70;;;3.03;;
40573;SDS011;26283;49.020;8.644;2022-08-24T04:17:43;3.90;;;3.23;;
40573;SDS011;26283;49.020;8.644;2022-08-24T04:20:09;5.63;;;3.60;;
40573;SDS011;26283;49.020;8.644;2022-08-24T04:22:35;4.23;;;3.83;;
40573;SDS011;26283;49.020;8.644;2022-08-24T04:25:01;4.30;;;3.50;;
40573;SDS011;26283;49.020;8.644;2022-08-24T04:27:27;3.33;;;3.03;;
40573;SDS011;26283;49.020;8.644;2022-08-24T04:29:52;3.20;;;2.90;;
40573;SDS011;26283;49.020;8.644;2022-08-24T04:32:18;5.17;;;3.63;;
40573;SDS011;26283;49.020;8.644;2022-08-24T04:34:43;5.40;;;4.17;;
40573;SDS011;26283;49.020;8.644;2022-08-24T04:37:11;4.50;;;4.07;;
40573;SDS011;26283;49.020;8.644;2022-08-24T04:39:38;4.40;;;4.00;;
40573;SDS011;26283;49.020;8.644;2022-08-24T04:42:04;4.50;;;4.10;;
40573;SDS011;26283;49.020;8.644;2022-08-24T04:44:30;5.13;;;4.30;;
40573;SDS011;26283;49.020;8.644;2022-08-24T04:46:55;5.23;;;4.40;;
40573;SDS011;26283;49.020;8.644;2022-08-24T04:49:21;5.63;;;4.47;;
40573;SDS011;26283;49.020;8.644;2022-08-24T04:51:47;4.57;;;4.20;;
40573;SDS011;26283;49.020;8.644;2022-08-24T04:54:12;5.67;;;4.17;;
40573;SDS011;26283;49.020;8.644;2022-08-24T04:56:37;4.63;;;3.90;;
40573;SDS011;26283;49.020;8.644;2022-08-24T04:59:03;4.43;;;4.03;;
40573;SDS011;26283;49.020;8.644;2022-08-24T05:01:29;4.83;;;4.00;;
40573;SDS011;26283;49.020;8.644;2022-08-24T05:03:56;3.97;;;3.67;;
40573;SDS011;26283;49.020;8.644;2022-08-24T05:06:24;3.80;;;3.50;;
40573;SDS011;26283;49.020;8.644;2022-08-24T05:08:52;4.20;;;3.90;;
40573;SDS011;26283;49.020;8.644;2022-08-24T05:11:19;4.73;;;3.80;;
40573;SDS011;26283;49.020;8.644;2022-08-24T05:13:45;3.77;;;3.47;;
40573;SDS011;26283;49.020;8.644;2022-08-24T05:16:13;4.90;;;4.10;;
40573;SDS011;26283;49.020;8.644;2022-08-24T05:18:40;6.03;;;4.10;;
40573;SDS011;26283;49.020;8.644;2022-08-24T05:21:06;4.83;;;3.83;;
40573;SDS011;26283;49.020;8.644;2022-08-24T05:23:33;4.10;;;3.60;;
40573;SDS011;26283;49.020;8.644;2022-08-24T05:26:19;4.30;;;3.77;;
40573;SDS011;26283;49.020;8.644;2022-08-24T05:28:49;6.77;;;4.10;;
40573;SDS011;26283;49.020;8.644;2022-08-24T05:31:15;3.90;;;3.60;;
40573;SDS011;26283;49.020;8.644;2022-08-24T05:33:43;5.53;;;4.30;;
40573;SDS011;26283;49.020;8.644;2022-08-24T05:38:47;5.10;;;4.17;;
40573;SDS011;26283;49.020;8.644;2022-08-24T05:41:14;5.00;;;4.20;;
40573;SDS011;26283;49.020;8.644;2022-08-24T05:43:41;4.03;;;3.67;;
40573;SDS011;26283;49.020;8.644;2022-08-24T05:46:07;5.03;;;3.97;;
40573;SDS011;26283;49.020;8.644;2022-08-24T05:48:32;5.13;;;4.03;;
40573;SDS011;26283;49.020;8.644;2022-08-24T05:50:59;5.90;;;4.13;;
40573;SDS011;26283;49.020;8.644;2022-08-24T05:53:25;6.57;;;4.00;;
40573;SDS011;26283;49.020;8.644;2022-08-24T05:55:51;5.70;;;4.17;;
40573;SDS011;26283;49.020;8.644;2022-08-24T05:58:17;4.20;;;3.90;;
40573;SDS011;26283;49.020;8.644;2022-08-24T06:00:43;4.00;;;3.67;;
40573;SDS011;26283;49.020;8.644;2022-08-24T06:03:10;4.30;;;3.97;;
40573;SDS011;26283;49.020;8.644;2022-08-24T06:05:42;4.10;;;3.70;;
40573;SDS011;26283;49.020;8.644;2022-08-24T06:08:08;4.47;;;3.80;;
40573;SDS011;26283;49.020;8.644;2022-08-24T06:10:38;4.20;;;3.90;;
40573;SDS011;26283;49.020;8.644;2022-08-24T06:13:05;6.27;;;4.23;;
40573;SDS011;26283;49.020;8.644;2022-08-24T06:15:32;4.83;;;4.30;;
40573;SDS011;26283;49.020;8.644;2022-08-24T06:17:58;5.60;;;4.10;;
40573;SDS011;26283;49.020;8.644;2022-08-24T06:20:24;4.87;;;4.23;;
40573;SDS011;26283;49.020;8.644;2022-08-24T06:22:49;4.57;;;4.03;;
40573;SDS011;26283;49.020;8.644;2022-08-24T06:25:15;5.13;;;4.27;;
40573;SDS011;26283;49.020;8.644;2022-08-24T06:27:59;4.60;;;4.20;;
40573;SDS011;26283;49.020;8.644;2022-08-24T06:30:24;5.03;;;4.20;;
40573;SDS011;26283;49.020;8.644;2022-08-24T06:32:49;6.33;;;4.80;;
40573;SDS011;26283;49.020;8.644;2022-08-24T06:35:15;5.30;;;4.80;;
40573;SDS011;26283;49.020;8.644;2022-08-24T06:37:40;6.80;;;6.20;;
40573;SDS011;26283;49.020;8.644;2022-08-24T06:40:07;6.20;;;5.60;;
40573;SDS011;26283;49.020;8.644;2022-08-24T06:42:34;5.60;;;5.00;;
40573;SDS011;26283;49.020;8.644;2022-08-24T06:45:00;5.63;;;4.67;;
40573;SDS011;26283;49.020;8.644;2022-08-24T06:47:27;8.83;;;4.50;;
40573;SDS011;26283;49.020;8.644;2022-08-24T06:49:53;6.23;;;4.40;;
40573;SDS011;26283;49.020;8.644;2022-08-24T06:52:18;5.40;;;4.30;;
40573;SDS011;26283;49.020;8.644;2022-08-24T06:54:43;4.57;;;4.10;;
40573;SDS011;26283;49.020;8.644;2022-08-24T06:57:09;4.67;;;3.93;;
40573;SDS011;26283;49.020;8.644;2022-08-24T06:59:34;6.07;;;4.00;;
40573;SDS011;26283;49.020;8.644;2022-08-24T07:02:00;8.57;;;4.03;;
40573;SDS011;26283;49.020;8.644;2022-08-24T07:04:25;7.30;;;3.97;;
40573;SDS011;26283;49.020;8.644;2022-08-24T07:06:52;5.27;;;3.97;;
40573;SDS011;26283;49.020;8.644;2022-08-24T07:09:18;4.80;;;3.73;;
40573;SDS011;26283;49.020;8.644;2022-08-24T07:11:44;4.90;;;3.70;;
40573;SDS011;26283;49.020;8.644;2022-08-24T07:14:09;5.30;;;3.83;;
40573;SDS011;26283;49.020;8.644;2022-08-24T07:16:35;4.33;;;3.93;;
40573;SDS011;26283;49.020;8.644;2022-08-24T07:19:02;5.47;;;3.93;;
40573;SDS011;26283;49.020;8.644;2022-08-24T07:21:29;5.07;;;3.40;;
40573;SDS011;26283;49.020;8.644;2022-08-24T07:23:57;3.90;;;3.50;;
40573;SDS011;26283;49.020;8.644;2022-08-24T07:26:25;3.35;;;3.15;;
40573;SDS011;26283;49.020;8.644;2022-08-24T07:28:52;4.83;;;3.43;;
40573;SDS011;26283;49.020;8.644;2022-08-24T07:31:28;3.03;;;2.75;;
40573;SDS011;26283;49.020;8.644;2022-08-24T07:33:54;3.20;;;2.90;;
40573;SDS011;26283;49.020;8.644;2022-08-24T07:36:19;3.37;;;3.07;;
40573;SDS011;26283;49.020;8.644;2022-08-24T07:38:45;3.25;;;3.05;;
40573;SDS011;26283;49.020;8.644;2022-08-24T07:41:10;3.87;;;3.05;;
40573;SDS011;26283;49.020;8.644;2022-08-24T07:43:38;3.45;;;3.10;;
40573;SDS011;26283;49.020;8.644;2022-08-24T07:46:05;6.37;;;3.35;;
40573;SDS011;26283;49.020;8.644;2022-08-24T07:48:31;4.12;;;3.08;;
40573;SDS011;26283;49.020;8.644;2022-08-24T07:50:56;4.32;;;2.55;;
40573;SDS011;26283;49.020;8.644;2022-08-24T07:53:23;3.12;;;2.78;;
40573;SDS011;26283;49.020;8.644;2022-08-24T07:55:53;4.68;;;2.87;;
40573;SDS011;26283;49.020;8.644;2022-08-24T07:58:20;3.05;;;2.60;;
40573;SDS011;26283;49.020;8.644;2022-08-24T08:00:46;3.30;;;3.00;;
40573;SDS011;26283;49.020;8.644;2022-08-24T08:03:12;7.93;;;3.50;;
40573;SDS011;26283;49.020;8.644;2022-08-24T08:05:38;7.57;;;5.18;;
40573;SDS011;26283;49.020;8.644;2022-08-24T08:08:04;6.22;;;4.03;;
40573;SDS011;26283;49.020;8.644;2022-08-24T08:10:30;5.82;;;3.40;;
40573;SDS011;26283;49.020;8.644;2022-08-24T08:12:59;10.15;;;3.65;;
40573;SDS011;26283;49.020;8.644;2022-08-24T08:15:25;7.72;;;3.22;;
40573;SDS011;26283;49.020;8.644;2022-08-24T08:17:51;9.07;;;3.50;;
40573;SDS011;26283;49.020;8.644;2022-08-24T08:20:17;3.78;;;2.92;;
40573;SDS011;26283;49.020;8.644;2022-08-24T08:22:42;6.25;;;3.30;;
40573;SDS011;26283;49.020;8.644;2022-08-24T08:25:26;7.05;;;3.25;;
40573;SDS011;26283;49.020;8.644;2022-08-24T08:27:52;8.25;;;2.90;;
40573;SDS011;26283;49.020;8.644;2022-08-24T08:30:17;6.22;;;3.20;;
40573;SDS011;26283;49.020;8.644;2022-08-24T08:32:43;7.15;;;3.03;;
40573;SDS011;26283;49.020;8.644;2022-08-24T08:35:08;3.97;;;2.50;;
40573;SDS011;26283;49.020;8.644;2022-08-24T08:37:34;5.07;;;2.78;;
40573;SDS011;26283;49.020;8.644;2022-08-24T08:40:00;6.62;;;2.97;;
40573;SDS011;26283;49.020;8.644;2022-08-24T08:45:03;6.55;;;2.70;;
40573;SDS011;26283;49.020;8.644;2022-08-24T09:07:19;4.57;;;2.60;;
40573;SDS011;26283;49.020;8.644;2022-08-24T09:20:54;2.22;;;1.92;;
40573;SDS011;26283;49.020;8.644;2022-08-24T09:26:46;3.55;;;2.00;;
40573;SDS011;26283;49.020;8.644;2022-08-24T09:29:41;2.20;;;2.00;;
40573;SDS011;26283;49.020;8.644;2022-08-24T09:35:04;1.83;;;1.73;;
40573;SDS011;26283;49.020;8.644;2022-08-24T09:43:09;1.60;;;1.40;;
40573;SDS011;26283;49.020;8.644;2022-08-24T10:03:23;1.62;;;1.30;;
40573;SDS011;26283;49.020;8.644;2022-08-24T10:09:02;4.07;;;1.50;;
40573;SDS011;26283;49.020;8.644;2022-08-24T10:11:43;1.67;;;1.27;;
40573;SDS011;26283;49.020;8.644;2022-08-24T10:20:22;2.40;;;1.30;;
40573;SDS011;26283;49.020;8.644;2022-08-24T10:26:34;2.03;;;1.37;;
40573;SDS011;26283;49.020;8.644;2022-08-24T10:31:50;2.33;;;1.58;;
40573;SDS011;26283;49.020;8.644;2022-08-24T10:34:26;2.67;;;1.33;;
40573;SDS011;26283;49.020;8.644;2022-08-24T10:39:55;2.58;;;1.42;;
40573;SDS011;26283;49.020;8.644;2022-08-24T10:53:31;1.60;;;1.50;;
40573;SDS011;26283;49.020;8.644;2022-08-24T10:56:06;1.92;;;1.45;;
40573;SDS011;26283;49.020;8.644;2022-08-24T11:06:30;2.33;;;1.45;;
40573;SDS011;26283;49.020;8.644;2022-08-24T11:09:05;2.40;;;1.50;;
40573;SDS011;26283;49.020;8.644;2022-08-24T11:11:34;2.58;;;1.75;;
40573;SDS011;26283;49.020;8.644;2022-08-24T11:14:06;2.58;;;1.70;;
40573;SDS011;26283;49.020;8.644;2022-08-24T11:16:46;3.67;;;1.73;;
40573;SDS011;26283;49.020;8.644;2022-08-24T11:19:33;1.77;;;1.67;;
40573;SDS011;26283;49.020;8.644;2022-08-24T11:22:00;2.22;;;1.62;;
40573;SDS011;26283;49.020;8.644;2022-08-24T11:24:39;3.37;;;1.90;;
40573;SDS011;26283;49.020;8.644;2022-08-24T11:32:31;3.33;;;1.80;;
40573;SDS011;26283;49.020;8.644;2022-08-24T11:37:53;3.30;;;1.75;;
40573;SDS011;26283;49.020;8.644;2022-08-24T11:40:22;5.97;;;2.40;;
40573;SDS011;26283;49.020;8.644;2022-08-24T11:43:02;3.15;;;2.20;;
40573;SDS011;26283;49.020;8.644;2022-08-24T11:45:39;2.65;;;2.30;;
40573;SDS011;26283;49.020;8.644;2022-08-24T11:51:20;2.45;;;1.73;;
40573;SDS011;26283;49.020;8.644;2022-08-24T11:54:01;2.35;;;1.80;;
40573;SDS011;26283;49.020;8.644;2022-08-24T11:56:44;2.67;;;1.90;;
40573;SDS011;26283;49.020;8.644;2022-08-24T11:59:28;4.32;;;2.20;;
40573;SDS011;26283;49.020;8.644;2022-08-24T12:01:58;2.10;;;1.90;;
40573;SDS011;26283;49.020;8.644;2022-08-24T12:04:40;2.08;;;1.98;;
40573;SDS011;26283;49.020;8.644;2022-08-24T12:07:16;2.10;;;1.90;;
40573;SDS011;26283;49.020;8.644;2022-08-24T12:12:47;6.43;;;2.30;;
40573;SDS011;26283;49.020;8.644;2022-08-24T12:20:55;1.80;;;1.52;;
40573;SDS011;26283;49.020;8.644;2022-08-24T12:23:35;2.92;;;1.90;;
40573;SDS011;26283;49.020;8.644;2022-08-24T12:26:47;2.12;;;1.87;;
40573;SDS011;26283;49.020;8.644;2022-08-24T12:29:06;3.53;;;2.00;;
40573;SDS011;26283;49.020;8.644;2022-08-24T12:40:12;2.60;;;2.00;;
40573;SDS011;26283;49.020;8.644;2022-08-24T12:42:52;2.22;;;1.80;;
40573;SDS011;26283;49.020;8.644;2022-08-24T12:45:22;2.22;;;2.00;;
40573;SDS011;26283;49.020;8.644;2022-08-24T13:01:25;1.85;;;1.70;;
40573;SDS011;26283;49.020;8.644;2022-08-24T13:04:04;1.85;;;1.50;;
40573;SDS011;26283;49.020;8.644;2022-08-24T13:06:51;3.22;;;1.95;;
40573;SDS011;26283;49.020;8.644;2022-08-24T13:09:40;3.03;;;1.70;;
40573;SDS011;26283;49.020;8.644;2022-08-24T13:20:20;4.00;;;1.70;;
40573;SDS011;26283;49.020;8.644;2022-08-24T13:39:21;2.45;;;1.50;;
40573;SDS011;26283;49.020;8.644;2022-08-24T13:58:50;1.70;;;1.48;;
40573;SDS011;26283;49.020;8.644;2022-08-24T14:09:19;1.70;;;1.60;;
40573;SDS011;26283;49.020;8.644;2022-08-24T14:20:09;1.87;;;1.77;;
40573;SDS011;26283;49.020;8.644;2022-08-24T14:25:36;4.93;;;1.77;;
40573;SDS011;26283;49.020;8.644;2022-08-24T14:31:17;2.65;;;1.50;;
40573;SDS011;26283;49.020;8.644;2022-08-24T14:36:53;5.40;;;1.80;;
40573;SDS011;26283;49.020;8.644;2022-08-24T14:42:35;2.53;;;1.60;;
40573;SDS011;26283;49.020;8.644;2022-08-24T14:58:09;2.15;;;1.60;;
40573;SDS011;26283;49.020;8.644;2022-08-24T15:09:08;1.50;;;1.40;;
40573;SDS011;26283;49.020;8.644;2022-08-24T15:11:41;2.45;;;1.30;;
40573;SDS011;26283;49.020;8.644;2022-08-24T15:14:10;5.00;;;1.52;;
40573;SDS011;26283;49.020;8.644;2022-08-24T15:16:48;2.95;;;1.52;;
40573;SDS011;26283;49.020;8.644;2022-08-24T15:22:49;1.70;;;1.30;;
40573;SDS011;26283;49.020;8.644;2022-08-24T15:25:19;1.42;;;1.33;;
40573;SDS011;26283;49.020;8.644;2022-08-24T15:27:54;1.73;;;1.62;;
40573;SDS011;26283;49.020;8.644;2022-08-24T15:36:05;2.30;;;1.73;;
40573;SDS011;26283;49.020;8.644;2022-08-24T15:38:36;1.80;;;1.70;;
40573;SDS011;26283;49.020;8.644;2022-08-24T15:46:11;1.60;;;1.50;;
40573;SDS011;26283;49.020;8.644;2022-08-24T15:48:39;2.65;;;1.52;;
40573;SDS011;26283;49.020;8.644;2022-08-24T15:51:06;1.62;;;1.52;;
40573;SDS011;26283;49.020;8.644;2022-08-24T15:53:39;1.40;;;1.30;;
40573;SDS011;26283;49.020;8.644;2022-08-24T15:58:53;1.87;;;1.73;;
40573;SDS011;26283;49.020;8.644;2022-08-24T16:01:34;2.35;;;1.50;;
40573;SDS011;26283;49.020;8.644;2022-08-24T16:07:06;1.77;;;1.50;;
40573;SDS011;26283;49.020;8.644;2022-08-24T16:09:35;1.10;;;1.10;;
40573;SDS011;26283;49.020;8.644;2022-08-24T16:12:12;1.45;;;1.35;;
40573;SDS011;26283;49.020;8.644;2022-08-24T16:14:45;1.42;;;1.33;;
40573;SDS011;26283;49.020;8.644;2022-08-24T16:19:48;2.42;;;1.30;;
40573;SDS011;26283;49.020;8.644;2022-08-24T16:22:23;2.35;;;1.33;;
40573;SDS011;26283;49.020;8.644;2022-08-24T16:25:07;3.22;;;1.92;;
40573;SDS011;26283;49.020;8.644;2022-08-24T16:36:00;1.62;;;1.52;;
40573;SDS011;26283;49.020;8.644;2022-08-24T16:38:28;3.22;;;1.60;;
40573;SDS011;26283;49.020;8.644;2022-08-24T16:40:58;3.22;;;1.80;;
40573;SDS011;26283;49.020;8.644;2022-08-24T16:43:26;2.97;;;1.60;;
40573;SDS011;26283;49.020;8.644;2022-08-24T16:45:53;2.67;;;1.60;;
40573;SDS011;26283;49.020;8.644;2022-08-24T16:48:19;1.70;;;1.60;;
40573;SDS011;26283;49.020;8.644;2022-08-24T16:50:45;2.20;;;1.48;;
40573;SDS011;26283;49.020;8.644;2022-08-24T16:53:10;1.60;;;1.50;;
40573;SDS011;26283;49.020;8.644;2022-08-24T16:55:36;2.12;;;1.45;;
40573;SDS011;26283;49.020;8.644;2022-08-24T16:58:01;3.03;;;1.50;;
40573;SDS011;26283;49.020;8.644;2022-08-24T17:00:28;2.35;;;2.10;;
40573;SDS011;26283;49.020;8.644;2022-08-24T17:02:54;3.00;;;1.33;;
40573;SDS011;26283;49.020;8.644;2022-08-24T17:05:19;3.00;;;1.50;;
40573;SDS011;26283;49.020;8.644;2022-08-24T17:07:45;3.67;;;1.62;;
40573;SDS011;26283;49.020;8.644;2022-08-24T17:10:13;4.25;;;1.95;;
40573;SDS011;26283;49.020;8.644;2022-08-24T17:12:40;1.70;;;1.60;;
40573;SDS011;26283;49.020;8.644;2022-08-24T17:15:07;1.80;;;1.70;;
40573;SDS011;26283;49.020;8.644;2022-08-24T17:17:35;1.75;;;1.65;;
40573;SDS011;26283;49.020;8.644;2022-08-24T17:20:02;2.55;;;1.50;;
40573;SDS011;26283;49.020;8.644;2022-08-24T17:22:31;6.00;;;1.70;;
40573;SDS011;26283;49.020;8.644;2022-08-24T17:24:57;1.60;;;1.40;;
40573;SDS011;26283;49.020;8.644;2022-08-24T17:27:25;2.55;;;2.35;;
40573;SDS011;26283;49.020;8.644;2022-08-24T17:29:54;1.67;;;1.30;;
40573;SDS011;26283;49.020;8.644;2022-08-24T17:32:20;1.37;;;1.30;;
40573;SDS011;26283;49.020;8.644;2022-08-24T17:34:45;1.85;;;1.35;;
40573;SDS011;26283;49.020;8.644;2022-08-24T17:37:11;3.20;;;1.62;;
40573;SDS011;26283;49.020;8.644;2022-08-24T17:39:36;1.70;;;1.48;;
40573;SDS011;26283;49.020;8.644;2022-08-24T17:42:02;1.95;;;1.60;;
40573;SDS011;26283;49.020;8.644;2022-08-24T17:44:29;1.40;;;1.30;;
40573;SDS011;26283;49.020;8.644;2022-08-24T17:46:58;2.60;;;1.52;;
40573;SDS011;26283;49.020;8.644;2022-08-24T17:49:27;2.15;;;1.60;;
40573;SDS011;26283;49.020;8.644;2022-08-24T17:51:55;1.52;;;1.42;;
40573;SDS011;26283;49.020;8.644;2022-08-24T17:54:21;1.95;;;1.55;;
40573;SDS011;26283;49.020;8.644;2022-08-24T17:56:47;3.50;;;1.70;;
40573;SDS011;26283;49.020;8.644;2022-08-24T17:59:14;4.97;;;1.87;;
40573;SDS011;26283;49.020;8.644;2022-08-24T18:01:48;6.85;;;2.05;;
40573;SDS011;26283;49.020;8.644;2022-08-24T18:04:21;2.87;;;1.55;;
40573;SDS011;26283;49.020;8.644;2022-08-24T18:06:52;2.60;;;1.73;;
40573;SDS011;26283;49.020;8.644;2022-08-24T18:09:35;4.18;;;1.70;;
40573;SDS011;26283;49.020;8.644;2022-08-24T18:12:05;3.58;;;1.60;;
40573;SDS011;26283;49.020;8.644;2022-08-24T18:14:32;1.98;;;1.58;;
40573;SDS011;26283;49.020;8.644;2022-08-24T18:17:00;1.92;;;1.50;;
40573;SDS011;26283;49.020;8.644;2022-08-24T18:19:27;1.73;;;1.62;;
40573;SDS011;26283;49.020;8.644;2022-08-24T18:21:52;2.97;;;1.70;;
40573;SDS011;26283;49.020;8.644;2022-08-24T18:24:18;3.62;;;1.87;;
40573;SDS011;26283;49.020;8.644;2022-08-24T18:26:45;4.70;;;1.70;;
40573;SDS011;26283;49.020;8.644;2022-08-24T18:29:12;2.80;;;1.80;;
40573;SDS011;26283;49.020;8.644;2022-08-24T18:31:41;1.80;;;1.70;;
40573;SDS011;26283;49.020;8.644;2022-08-24T18:34:08;3.67;;;1.58;;
40573;SDS011;26283;49.020;8.644;2022-08-24T18:36:35;1.83;;;1.33;;
40573;SDS011;26283;49.020;8.644;2022-08-24T18:39:01;2.60;;;1.50;;
40573;SDS011;26283;49.020;8.644;2022-08-24T18:41:29;5.15;;;1.60;;
40573;SDS011;26283;49.020;8.644;2022-08-24T18:44:00;2.67;;;1.48;;
40573;SDS011;26283;49.020;8.644;2022-08-24T18:46:26;2.53;;;1.70;;
40573;SDS011;26283;49.020;8.644;2022-08-24T18:48:53;1.77;;;1.67;;
40573;SDS011;26283;49.020;8.644;2022-08-24T18:51:19;1.70;;;1.60;;
40573;SDS011;26283;49.020;8.644;2022-08-24T18:53:45;2.30;;;1.80;;
40573;SDS011;26283;49.020;8.644;2022-08-24T18:56:12;2.28;;;1.60;;
40573;SDS011;26283;49.020;8.644;2022-08-24T18:58:38;1.85;;;1.75;;
40573;SDS011;26283;49.020;8.644;2022-08-24T19:01:03;1.75;;;1.52;;
40573;SDS011;26283;49.020;8.644;2022-08-24T19:03:30;1.90;;;1.80;;
40573;SDS011;26283;49.020;8.644;2022-08-24T19:05:56;3.90;;;1.80;;
40573;SDS011;26283;49.020;8.644;2022-08-24T19:08:22;4.72;;;1.60;;
40573;SDS011;26283;49.020;8.644;2022-08-24T19:10:47;1.70;;;1.60;;
40573;SDS011;26283;49.020;8.644;2022-08-24T19:13:13;2.08;;;1.60;;
40573;SDS011;26283;49.020;8.644;2022-08-24T19:15:40;2.10;;;2.00;;
40573;SDS011;26283;49.020;8.644;2022-08-24T19:18:07;2.22;;;1.60;;
40573;SDS011;26283;49.020;8.644;2022-08-24T19:20:34;1.80;;;1.70;;
40573;SDS011;26283;49.020;8.644;2022-08-24T19:23:08;2.65;;;1.98;;
40573;SDS011;26283;49.020;8.644;2022-08-24T19:25:36;1.55;;;1.42;;
40573;SDS011;26283;49.020;8.644;2022-08-24T19:28:04;2.25;;;1.90;;
40573;SDS011;26283;49.020;8.644;2022-08-24T19:30:30;1.60;;;1.50;;
40573;SDS011;26283;49.020;8.644;2022-08-24T19:32:55;3.92;;;1.58;;